sensor_id;sensor_type;location;lat;lon;timestamp;P1;durP1;ratioP1;P2;durP2;ratioP2
52306;SDS011;38249;48.920;12.882;2022-07-24T00:00:08;12.18;;;10.18;;
52306;SDS011;38249;48.920;12.882;2022-07-24T00:02:35;12.75;;;11.43;;
52306;SDS011;38249;48.920;12.882;2022-07-24T00:05:02;13.20;;;11.73;;
52306;SDS011;38249;48.920;12.882;2022-07-24T00:07:29;21.48;;;18.50;;
52306;SDS011;38249;48.920;12.882;2022-07-24T00:09:55;10.68;;;9.63;;
52306;SDS011;38249;48.920;12.882;2022-07-24T00:12:23;11.75;;;10.55;;
52306;SDS011;38249;48.920;12.882;2022-07-24T00:14:49;13.88;;;12.40;;
52306;SDS011;38249;48.920;12.882;2022-07-24T00:17:16;13.20;;;11.73;;
52306;SDS011;38249;48.920;12.882;2022-07-24T00:19:42;13.73;;;12.18;;
52306;SDS011;38249;48.920;12.882;2022-07-24T00:22:09;11.13;;;9.95;;
52306;SDS011;38249;48.920;12.882;2022-07-24T00:24:35;12.10;;;10.75;;
52306;SDS011;38249;48.920;12.882;2022-07-24T00:27:02;14.85;;;13.27;;
52306;SDS011;38249;48.920;12.882;2022-07-24T00:29:30;12.88;;;11.63;;
52306;SDS011;38249;48.920;12.882;2022-07-24T00:31:57;12.65;;;11.35;;
52306;SDS011;38249;48.920;12.882;2022-07-24T00:34:23;10.57;;;9.43;;
52306;SDS011;38249;48.920;12.882;2022-07-24T00:36:50;14.30;;;10.73;;
52306;SDS011;38249;48.920;12.882;2022-07-24T00:39:17;10.40;;;9.40;;
52306;SDS011;38249;48.920;12.882;2022-07-24T00:41:43;9.65;;;8.65;;
52306;SDS011;38249;48.920;12.882;2022-07-24T00:44:11;13.23;;;10.23;;
52306;SDS011;38249;48.920;12.882;2022-07-24T00:46:41;11.48;;;10.27;;
52306;SDS011;38249;48.920;12.882;2022-07-24T00:49:10;12.52;;;10.20;;
52306;SDS011;38249;48.920;12.882;2022-07-24T00:51:37;13.07;;;10.05;;
52306;SDS011;38249;48.920;12.882;2022-07-24T00:54:06;12.32;;;10.57;;
52306;SDS011;38249;48.920;12.882;2022-07-24T00:56:34;11.55;;;9.25;;
52306;SDS011;38249;48.920;12.882;2022-07-24T00:59:01;11.02;;;10.13;;
52306;SDS011;38249;48.920;12.882;2022-07-24T01:01:29;10.95;;;9.63;;
52306;SDS011;38249;48.920;12.882;2022-07-24T01:03:58;33.55;;;27.52;;
52306;SDS011;38249;48.920;12.882;2022-07-24T01:06:25;14.60;;;13.02;;
52306;SDS011;38249;48.920;12.882;2022-07-24T01:08:52;10.35;;;9.25;;
52306;SDS011;38249;48.920;12.882;2022-07-24T01:11:18;10.85;;;9.70;;
52306;SDS011;38249;48.920;12.882;2022-07-24T01:13:46;13.27;;;9.57;;
52306;SDS011;38249;48.920;12.882;2022-07-24T01:16:13;10.13;;;9.20;;
52306;SDS011;38249;48.920;12.882;2022-07-24T01:18:40;9.88;;;8.82;;
52306;SDS011;38249;48.920;12.882;2022-07-24T01:21:08;9.70;;;8.70;;
52306;SDS011;38249;48.920;12.882;2022-07-24T01:23:35;10.10;;;8.80;;
52306;SDS011;38249;48.920;12.882;2022-07-24T01:26:02;11.85;;;9.38;;
52306;SDS011;38249;48.920;12.882;2022-07-24T01:28:31;11.98;;;9.02;;
52306;SDS011;38249;48.920;12.882;2022-07-24T01:30:58;10.88;;;9.20;;
52306;SDS011;38249;48.920;12.882;2022-07-24T01:33:25;9.27;;;8.30;;
52306;SDS011;38249;48.920;12.882;2022-07-24T01:35:52;9.25;;;8.32;;
52306;SDS011;38249;48.920;12.882;2022-07-24T01:38:19;9.50;;;8.50;;
52306;SDS011;38249;48.920;12.882;2022-07-24T01:40:46;9.60;;;8.63;;
52306;SDS011;38249;48.920;12.882;2022-07-24T01:46:34;8.98;;;8.18;;
52306;SDS011;38249;48.920;12.882;2022-07-24T01:49:01;10.63;;;8.90;;
52306;SDS011;38249;48.920;12.882;2022-07-24T01:51:28;10.63;;;9.20;;
52306;SDS011;38249;48.920;12.882;2022-07-24T01:53:55;11.75;;;9.77;;
52306;SDS011;38249;48.920;12.882;2022-07-24T01:56:22;10.50;;;9.48;;
52306;SDS011;38249;48.920;12.882;2022-07-24T01:58:48;13.10;;;9.55;;
52306;SDS011;38249;48.920;12.882;2022-07-24T02:01:15;10.57;;;9.48;;
52306;SDS011;38249;48.920;12.882;2022-07-24T02:03:41;9.57;;;8.70;;
52306;SDS011;38249;48.920;12.882;2022-07-24T02:06:08;11.68;;;9.77;;
52306;SDS011;38249;48.920;12.882;2022-07-24T02:08:34;12.43;;;9.88;;
52306;SDS011;38249;48.920;12.882;2022-07-24T02:11:02;10.73;;;8.93;;
52306;SDS011;38249;48.920;12.882;2022-07-24T02:13:29;10.65;;;9.45;;
52306;SDS011;38249;48.920;12.882;2022-07-24T02:15:56;12.35;;;8.93;;
52306;SDS011;38249;48.920;12.882;2022-07-24T02:18:23;12.05;;;9.85;;
52306;SDS011;38249;48.920;12.882;2022-07-24T02:20:49;12.90;;;9.00;;
52306;SDS011;38249;48.920;12.882;2022-07-24T02:23:16;12.85;;;9.65;;
52306;SDS011;38249;48.920;12.882;2022-07-24T02:25:43;10.90;;;9.80;;
52306;SDS011;38249;48.920;12.882;2022-07-24T02:28:12;11.13;;;9.93;;
52306;SDS011;38249;48.920;12.882;2022-07-24T02:30:40;11.80;;;8.90;;
52306;SDS011;38249;48.920;12.882;2022-07-24T02:33:07;11.13;;;9.60;;
52306;SDS011;38249;48.920;12.882;2022-07-24T02:35:34;10.90;;;9.80;;
52306;SDS011;38249;48.920;12.882;2022-07-24T02:38:00;10.68;;;9.57;;
52306;SDS011;38249;48.920;12.882;2022-07-24T02:40:27;10.13;;;9.10;;
52306;SDS011;38249;48.920;12.882;2022-07-24T02:42:53;10.68;;;9.00;;
52306;SDS011;38249;48.920;12.882;2022-07-24T02:45:21;10.38;;;9.38;;
52306;SDS011;38249;48.920;12.882;2022-07-24T02:47:49;10.10;;;8.90;;
52306;SDS011;38249;48.920;12.882;2022-07-24T02:50:17;11.55;;;9.75;;
52306;SDS011;38249;48.920;12.882;2022-07-24T02:52:45;9.85;;;8.82;;
52306;SDS011;38249;48.920;12.882;2022-07-24T02:55:11;10.85;;;9.75;;
52306;SDS011;38249;48.920;12.882;2022-07-24T02:57:38;10.77;;;9.70;;
52306;SDS011;38249;48.920;12.882;2022-07-24T03:00:05;10.25;;;9.10;;
52306;SDS011;38249;48.920;12.882;2022-07-24T03:02:35;10.18;;;9.07;;
52306;SDS011;38249;48.920;12.882;2022-07-24T03:05:02;10.25;;;8.93;;
52306;SDS011;38249;48.920;12.882;2022-07-24T03:07:30;10.68;;;9.07;;
52306;SDS011;38249;48.920;12.882;2022-07-24T03:09:56;10.90;;;9.90;;
52306;SDS011;38249;48.920;12.882;2022-07-24T03:12:23;10.05;;;9.05;;
52306;SDS011;38249;48.920;12.882;2022-07-24T03:14:49;12.45;;;9.65;;
52306;SDS011;38249;48.920;12.882;2022-07-24T03:17:16;11.50;;;9.57;;
52306;SDS011;38249;48.920;12.882;2022-07-24T03:19:44;10.90;;;9.80;;
52306;SDS011;38249;48.920;12.882;2022-07-24T03:22:11;12.52;;;9.15;;
52306;SDS011;38249;48.920;12.882;2022-07-24T03:24:37;11.63;;;9.82;;
52306;SDS011;38249;48.920;12.882;2022-07-24T03:27:04;10.70;;;9.60;;
52306;SDS011;38249;48.920;12.882;2022-07-24T03:29:30;10.70;;;9.52;;
52306;SDS011;38249;48.920;12.882;2022-07-24T03:31:57;11.40;;;10.20;;
52306;SDS011;38249;48.920;12.882;2022-07-24T03:34:23;12.20;;;9.60;;
52306;SDS011;38249;48.920;12.882;2022-07-24T03:36:51;10.20;;;9.13;;
52306;SDS011;38249;48.920;12.882;2022-07-24T03:39:17;11.07;;;9.35;;
52306;SDS011;38249;48.920;12.882;2022-07-24T03:41:44;10.63;;;9.63;;
52306;SDS011;38249;48.920;12.882;2022-07-24T03:44:10;10.48;;;9.32;;
52306;SDS011;38249;48.920;12.882;2022-07-24T03:46:37;10.50;;;9.32;;
52306;SDS011;38249;48.920;12.882;2022-07-24T03:49:04;10.75;;;9.30;;
52306;SDS011;38249;48.920;12.882;2022-07-24T03:51:30;10.90;;;8.30;;
52306;SDS011;38249;48.920;12.882;2022-07-24T03:53:58;11.32;;;9.80;;
52306;SDS011;38249;48.920;12.882;2022-07-24T03:56:25;9.93;;;8.75;;
52306;SDS011;38249;48.920;12.882;2022-07-24T03:58:51;10.75;;;9.52;;
52306;SDS011;38249;48.920;12.882;2022-07-24T04:01:18;10.95;;;9.85;;
52306;SDS011;38249;48.920;12.882;2022-07-24T04:03:45;11.15;;;9.57;;
52306;SDS011;38249;48.920;12.882;2022-07-24T04:06:11;10.57;;;9.48;;
52306;SDS011;38249;48.920;12.882;2022-07-24T04:08:39;10.98;;;9.88;;
52306;SDS011;38249;48.920;12.882;2022-07-24T04:11:07;11.63;;;10.45;;
52306;SDS011;38249;48.920;12.882;2022-07-24T04:13:33;15.05;;;13.18;;
52306;SDS011;38249;48.920;12.882;2022-07-24T04:16:00;13.15;;;11.75;;
52306;SDS011;38249;48.920;12.882;2022-07-24T04:18:26;11.30;;;10.13;;
52306;SDS011;38249;48.920;12.882;2022-07-24T04:20:53;23.55;;;19.45;;
52306;SDS011;38249;48.920;12.882;2022-07-24T04:23:19;28.58;;;23.80;;
52306;SDS011;38249;48.920;12.882;2022-07-24T04:25:46;23.38;;;20.02;;
52306;SDS011;38249;48.920;12.882;2022-07-24T04:28:14;19.80;;;16.38;;
52306;SDS011;38249;48.920;12.882;2022-07-24T04:30:41;17.80;;;15.55;;
52306;SDS011;38249;48.920;12.882;2022-07-24T04:33:08;11.88;;;9.55;;
52306;SDS011;38249;48.920;12.882;2022-07-24T04:35:34;11.57;;;9.75;;
52306;SDS011;38249;48.920;12.882;2022-07-24T04:38:01;13.85;;;11.93;;
52306;SDS011;38249;48.920;12.882;2022-07-24T04:40:27;10.57;;;9.55;;
52306;SDS011;38249;48.920;12.882;2022-07-24T04:42:54;11.80;;;10.68;;
52306;SDS011;38249;48.920;12.882;2022-07-24T04:45:22;14.15;;;12.40;;
52306;SDS011;38249;48.920;12.882;2022-07-24T04:47:49;14.95;;;12.70;;
52306;SDS011;38249;48.920;12.882;2022-07-24T04:50:15;25.23;;;21.42;;
52306;SDS011;38249;48.920;12.882;2022-07-24T04:52:42;14.27;;;11.00;;
52306;SDS011;38249;48.920;12.882;2022-07-24T04:55:08;16.70;;;12.43;;
52306;SDS011;38249;48.920;12.882;2022-07-24T04:57:35;12.13;;;10.88;;
52306;SDS011;38249;48.920;12.882;2022-07-24T05:00:02;12.82;;;11.38;;
52306;SDS011;38249;48.920;12.882;2022-07-24T05:02:32;15.80;;;13.57;;
52306;SDS011;38249;48.920;12.882;2022-07-24T05:04:59;26.63;;;20.80;;
52306;SDS011;38249;48.920;12.882;2022-07-24T05:07:26;31.10;;;27.00;;
52306;SDS011;38249;48.920;12.882;2022-07-24T05:09:52;19.58;;;17.48;;
52306;SDS011;38249;48.920;12.882;2022-07-24T05:12:19;19.63;;;15.85;;
52306;SDS011;38249;48.920;12.882;2022-07-24T05:14:45;16.60;;;12.60;;
52306;SDS011;38249;48.920;12.882;2022-07-24T05:17:12;18.55;;;16.23;;
52306;SDS011;38249;48.920;12.882;2022-07-24T05:19:39;19.52;;;15.60;;
52306;SDS011;38249;48.920;12.882;2022-07-24T05:22:06;11.75;;;10.65;;
52306;SDS011;38249;48.920;12.882;2022-07-24T05:24:32;13.13;;;10.40;;
52306;SDS011;38249;48.920;12.882;2022-07-24T05:26:59;11.48;;;9.60;;
52306;SDS011;38249;48.920;12.882;2022-07-24T05:29:25;12.82;;;11.52;;
52306;SDS011;38249;48.920;12.882;2022-07-24T05:31:52;11.40;;;10.13;;
52306;SDS011;38249;48.920;12.882;2022-07-24T05:34:19;12.50;;;11.30;;
52306;SDS011;38249;48.920;12.882;2022-07-24T05:36:47;13.95;;;12.45;;
52306;SDS011;38249;48.920;12.882;2022-07-24T05:39:14;13.82;;;11.77;;
52306;SDS011;38249;48.920;12.882;2022-07-24T05:41:41;12.63;;;11.32;;
52306;SDS011;38249;48.920;12.882;2022-07-24T05:44:08;13.80;;;12.02;;
52306;SDS011;38249;48.920;12.882;2022-07-24T05:46:34;14.35;;;11.93;;
52306;SDS011;38249;48.920;12.882;2022-07-24T05:49:01;13.05;;;11.18;;
52306;SDS011;38249;48.920;12.882;2022-07-24T05:51:27;13.45;;;11.43;;
52306;SDS011;38249;48.920;12.882;2022-07-24T05:53:56;13.50;;;12.00;;
52306;SDS011;38249;48.920;12.882;2022-07-24T05:56:22;12.32;;;11.13;;
52306;SDS011;38249;48.920;12.882;2022-07-24T05:58:49;11.25;;;10.15;;
52306;SDS011;38249;48.920;12.882;2022-07-24T06:01:15;12.15;;;10.70;;
52306;SDS011;38249;48.920;12.882;2022-07-24T06:03:42;11.93;;;10.70;;
52306;SDS011;38249;48.920;12.882;2022-07-24T06:06:08;13.13;;;10.90;;
52306;SDS011;38249;48.920;12.882;2022-07-24T06:08:35;13.90;;;11.82;;
52306;SDS011;38249;48.920;12.882;2022-07-24T06:11:02;13.10;;;11.05;;
52306;SDS011;38249;48.920;12.882;2022-07-24T06:13:29;11.73;;;10.23;;
52306;SDS011;38249;48.920;12.882;2022-07-24T06:15:55;12.82;;;11.02;;
52306;SDS011;38249;48.920;12.882;2022-07-24T06:18:22;13.15;;;10.27;;
52306;SDS011;38249;48.920;12.882;2022-07-24T06:20:48;13.13;;;11.00;;
52306;SDS011;38249;48.920;12.882;2022-07-24T06:23:15;11.57;;;10.38;;
52306;SDS011;38249;48.920;12.882;2022-07-24T06:25:41;11.85;;;10.65;;
52306;SDS011;38249;48.920;12.882;2022-07-24T06:28:09;11.80;;;10.60;;
52306;SDS011;38249;48.920;12.882;2022-07-24T06:30:36;12.00;;;10.02;;
52306;SDS011;38249;48.920;12.882;2022-07-24T06:33:02;12.27;;;9.93;;
52306;SDS011;38249;48.920;12.882;2022-07-24T06:35:29;12.23;;;10.88;;
52306;SDS011;38249;48.920;12.882;2022-07-24T06:37:57;11.45;;;10.35;;
52306;SDS011;38249;48.920;12.882;2022-07-24T06:40:25;13.00;;;10.00;;
52306;SDS011;38249;48.920;12.882;2022-07-24T06:42:53;16.88;;;11.63;;
52306;SDS011;38249;48.920;12.882;2022-07-24T06:45:21;12.90;;;11.32;;
52306;SDS011;38249;48.920;12.882;2022-07-24T06:47:47;11.15;;;10.05;;
52306;SDS011;38249;48.920;12.882;2022-07-24T06:50:14;11.52;;;10.43;;
52306;SDS011;38249;48.920;12.882;2022-07-24T06:52:40;12.07;;;10.70;;
52306;SDS011;38249;48.920;12.882;2022-07-24T06:55:08;15.52;;;13.43;;
52306;SDS011;38249;48.920;12.882;2022-07-24T06:57:35;11.52;;;10.00;;
52306;SDS011;38249;48.920;12.882;2022-07-24T07:00:03;14.15;;;10.75;;
52306;SDS011;38249;48.920;12.882;2022-07-24T07:02:32;11.20;;;9.95;;
52306;SDS011;38249;48.920;12.882;2022-07-24T07:04:59;12.60;;;11.02;;
52306;SDS011;38249;48.920;12.882;2022-07-24T07:07:25;12.50;;;10.77;;
52306;SDS011;38249;48.920;12.882;2022-07-24T07:09:52;11.05;;;10.05;;
52306;SDS011;38249;48.920;12.882;2022-07-24T07:12:18;14.32;;;12.02;;
52306;SDS011;38249;48.920;12.882;2022-07-24T07:14:45;13.20;;;11.80;;
52306;SDS011;38249;48.920;12.882;2022-07-24T07:17:12;13.50;;;11.90;;
52306;SDS011;38249;48.920;12.882;2022-07-24T07:19:42;12.38;;;10.90;;
52306;SDS011;38249;48.920;12.882;2022-07-24T07:22:09;12.82;;;10.50;;
52306;SDS011;38249;48.920;12.882;2022-07-24T07:24:35;12.02;;;10.73;;
52306;SDS011;38249;48.920;12.882;2022-07-24T07:27:02;12.73;;;11.52;;
52306;SDS011;38249;48.920;12.882;2022-07-24T07:29:29;13.35;;;11.98;;
52306;SDS011;38249;48.920;12.882;2022-07-24T07:31:56;13.10;;;11.55;;
52306;SDS011;38249;48.920;12.882;2022-07-24T07:34:22;12.63;;;11.32;;
52306;SDS011;38249;48.920;12.882;2022-07-24T07:36:50;13.65;;;12.00;;
52306;SDS011;38249;48.920;12.882;2022-07-24T07:39:17;13.43;;;12.02;;
52306;SDS011;38249;48.920;12.882;2022-07-24T07:41:43;13.88;;;12.38;;
52306;SDS011;38249;48.920;12.882;2022-07-24T07:44:10;13.38;;;11.50;;
52306;SDS011;38249;48.920;12.882;2022-07-24T07:46:36;13.82;;;12.38;;
52306;SDS011;38249;48.920;12.882;2022-07-24T07:49:03;13.20;;;10.40;;
52306;SDS011;38249;48.920;12.882;2022-07-24T07:51:29;12.30;;;11.10;;
52306;SDS011;38249;48.920;12.882;2022-07-24T07:53:57;13.50;;;10.82;;
52306;SDS011;38249;48.920;12.882;2022-07-24T07:56:24;11.02;;;9.93;;
52306;SDS011;38249;48.920;12.882;2022-07-24T07:58:50;13.88;;;10.75;;
52306;SDS011;38249;48.920;12.882;2022-07-24T08:01:17;12.50;;;10.43;;
52306;SDS011;38249;48.920;12.882;2022-07-24T08:03:44;12.93;;;10.68;;
52306;SDS011;38249;48.920;12.882;2022-07-24T08:06:10;10.52;;;9.48;;
52306;SDS011;38249;48.920;12.882;2022-07-24T08:08:37;10.68;;;9.57;;
52306;SDS011;38249;48.920;12.882;2022-07-24T08:11:05;10.07;;;9.07;;
52306;SDS011;38249;48.920;12.882;2022-07-24T08:13:32;14.50;;;10.10;;
52306;SDS011;38249;48.920;12.882;2022-07-24T08:15:59;11.10;;;9.38;;
52306;SDS011;38249;48.920;12.882;2022-07-24T08:18:25;10.25;;;9.15;;
52306;SDS011;38249;48.920;12.882;2022-07-24T08:20:52;10.25;;;9.23;;
52306;SDS011;38249;48.920;12.882;2022-07-24T08:23:18;12.23;;;9.15;;
52306;SDS011;38249;48.920;12.882;2022-07-24T08:25:45;11.18;;;10.10;;
52306;SDS011;38249;48.920;12.882;2022-07-24T08:28:13;10.63;;;9.15;;
52306;SDS011;38249;48.920;12.882;2022-07-24T08:30:39;10.15;;;9.15;;
52306;SDS011;38249;48.920;12.882;2022-07-24T08:33:06;10.35;;;9.25;;
52306;SDS011;38249;48.920;12.882;2022-07-24T08:35:32;10.05;;;9.02;;
52306;SDS011;38249;48.920;12.882;2022-07-24T08:37:59;10.05;;;9.05;;
52306;SDS011;38249;48.920;12.882;2022-07-24T08:40:29;10.00;;;9.00;;
52306;SDS011;38249;48.920;12.882;2022-07-24T08:42:59;10.48;;;8.98;;
52306;SDS011;38249;48.920;12.882;2022-07-24T08:45:27;9.68;;;8.32;;
52306;SDS011;38249;48.920;12.882;2022-07-24T08:47:55;10.43;;;9.30;;
52306;SDS011;38249;48.920;12.882;2022-07-24T08:50:22;9.07;;;8.18;;
52306;SDS011;38249;48.920;12.882;2022-07-24T08:52:48;10.27;;;8.48;;
52306;SDS011;38249;48.920;12.882;2022-07-24T08:55:15;9.45;;;8.55;;
52306;SDS011;38249;48.920;12.882;2022-07-24T08:57:43;9.63;;;8.63;;
52306;SDS011;38249;48.920;12.882;2022-07-24T09:00:09;9.77;;;8.77;;
52306;SDS011;38249;48.920;12.882;2022-07-24T09:02:38;11.95;;;9.20;;
52306;SDS011;38249;48.920;12.882;2022-07-24T09:05:05;8.93;;;7.82;;
52306;SDS011;38249;48.920;12.882;2022-07-24T09:07:32;9.73;;;8.73;;
52306;SDS011;38249;48.920;12.882;2022-07-24T09:09:59;9.00;;;8.07;;
52306;SDS011;38249;48.920;12.882;2022-07-24T09:12:33;8.40;;;7.70;;
52306;SDS011;38249;48.920;12.882;2022-07-24T09:15:01;8.80;;;7.90;;
52306;SDS011;38249;48.920;12.882;2022-07-24T09:17:43;9.07;;;8.18;;
52306;SDS011;38249;48.920;12.882;2022-07-24T09:20:14;9.48;;;7.65;;
52306;SDS011;38249;48.920;12.882;2022-07-24T09:22:41;8.48;;;7.70;;
52306;SDS011;38249;48.920;12.882;2022-07-24T09:25:10;9.30;;;7.90;;
52306;SDS011;38249;48.920;12.882;2022-07-24T09:27:39;8.55;;;7.72;;
52306;SDS011;38249;48.920;12.882;2022-07-24T09:30:08;8.35;;;7.47;;
52306;SDS011;38249;48.920;12.882;2022-07-24T09:32:35;8.57;;;7.78;;
52306;SDS011;38249;48.920;12.882;2022-07-24T09:35:04;8.80;;;8.00;;
52306;SDS011;38249;48.920;12.882;2022-07-24T09:37:32;8.55;;;7.75;;
52306;SDS011;38249;48.920;12.882;2022-07-24T09:40:06;8.55;;;7.75;;
52306;SDS011;38249;48.920;12.882;2022-07-24T09:42:35;8.38;;;7.50;;
52306;SDS011;38249;48.920;12.882;2022-07-24T09:45:05;8.23;;;7.43;;
52306;SDS011;38249;48.920;12.882;2022-07-24T09:47:35;7.78;;;7.07;;
52306;SDS011;38249;48.920;12.882;2022-07-24T09:50:15;8.50;;;7.70;;
52306;SDS011;38249;48.920;12.882;2022-07-24T09:52:43;7.60;;;7.00;;
52306;SDS011;38249;48.920;12.882;2022-07-24T09:55:20;7.57;;;6.88;;
52306;SDS011;38249;48.920;12.882;2022-07-24T09:57:48;12.38;;;11.27;;
52306;SDS011;38249;48.920;12.882;2022-07-24T10:00:16;7.60;;;6.93;;
52306;SDS011;38249;48.920;12.882;2022-07-24T10:02:44;7.28;;;6.75;;
52306;SDS011;38249;48.920;12.882;2022-07-24T10:05:12;7.95;;;7.20;;
52306;SDS011;38249;48.920;12.882;2022-07-24T10:07:40;7.35;;;6.75;;
52306;SDS011;38249;48.920;12.882;2022-07-24T10:10:08;7.45;;;6.85;;
52306;SDS011;38249;48.920;12.882;2022-07-24T10:12:36;7.13;;;6.60;;
52306;SDS011;38249;48.920;12.882;2022-07-24T10:15:03;6.95;;;6.28;;
52306;SDS011;38249;48.920;12.882;2022-07-24T10:17:33;7.07;;;6.40;;
52306;SDS011;38249;48.920;12.882;2022-07-24T10:20:29;7.20;;;6.63;;
52306;SDS011;38249;48.920;12.882;2022-07-24T10:23:04;6.68;;;6.07;;
52306;SDS011;38249;48.920;12.882;2022-07-24T10:25:34;6.78;;;6.18;;
52306;SDS011;38249;48.920;12.882;2022-07-24T10:28:19;6.47;;;5.97;;
52306;SDS011;38249;48.920;12.882;2022-07-24T10:31:01;7.00;;;6.50;;
52306;SDS011;38249;48.920;12.882;2022-07-24T10:33:31;6.22;;;5.72;;
52306;SDS011;38249;48.920;12.882;2022-07-24T10:35:58;6.30;;;5.80;;
52306;SDS011;38249;48.920;12.882;2022-07-24T10:38:29;6.45;;;5.90;;
52306;SDS011;38249;48.920;12.882;2022-07-24T10:41:02;6.70;;;6.05;;
52306;SDS011;38249;48.920;12.882;2022-07-24T10:43:31;6.07;;;5.63;;
52306;SDS011;38249;48.920;12.882;2022-07-24T10:48:41;6.00;;;5.60;;
52306;SDS011;38249;48.920;12.882;2022-07-24T10:51:08;6.95;;;6.38;;
52306;SDS011;38249;48.920;12.882;2022-07-24T10:53:47;6.47;;;5.88;;
52306;SDS011;38249;48.920;12.882;2022-07-24T10:56:18;6.25;;;5.65;;
52306;SDS011;38249;48.920;12.882;2022-07-24T10:58:56;6.20;;;5.63;;
52306;SDS011;38249;48.920;12.882;2022-07-24T11:01:29;6.78;;;6.05;;
52306;SDS011;38249;48.920;12.882;2022-07-24T11:04:02;5.75;;;5.25;;
52306;SDS011;38249;48.920;12.882;2022-07-24T11:06:50;6.35;;;5.32;;
52306;SDS011;38249;48.920;12.882;2022-07-24T11:09:18;6.28;;;5.68;;
52306;SDS011;38249;48.920;12.882;2022-07-24T11:14:47;5.82;;;5.40;;
52306;SDS011;38249;48.920;12.882;2022-07-24T11:20:10;6.43;;;5.93;;
52306;SDS011;38249;48.920;12.882;2022-07-24T11:22:38;5.60;;;5.15;;
52306;SDS011;38249;48.920;12.882;2022-07-24T11:25:11;6.00;;;5.40;;
52306;SDS011;38249;48.920;12.882;2022-07-24T11:27:43;6.30;;;5.70;;
52306;SDS011;38249;48.920;12.882;2022-07-24T11:30:13;5.30;;;4.90;;
52306;SDS011;38249;48.920;12.882;2022-07-24T11:32:40;5.97;;;5.55;;
52306;SDS011;38249;48.920;12.882;2022-07-24T11:35:07;5.43;;;4.93;;
52306;SDS011;38249;48.920;12.882;2022-07-24T11:37:36;5.10;;;4.63;;
52306;SDS011;38249;48.920;12.882;2022-07-24T11:40:05;5.13;;;4.70;;
52306;SDS011;38249;48.920;12.882;2022-07-24T11:42:33;5.90;;;5.30;;
52306;SDS011;38249;48.920;12.882;2022-07-24T11:45:01;5.75;;;5.30;;
52306;SDS011;38249;48.920;12.882;2022-07-24T11:47:29;5.32;;;4.93;;
52306;SDS011;38249;48.920;12.882;2022-07-24T11:49:57;5.63;;;5.10;;
52306;SDS011;38249;48.920;12.882;2022-07-24T11:52:26;6.45;;;5.72;;
52306;SDS011;38249;48.920;12.882;2022-07-24T11:54:58;5.80;;;5.30;;
52306;SDS011;38249;48.920;12.882;2022-07-24T11:57:27;5.50;;;5.10;;
52306;SDS011;38249;48.920;12.882;2022-07-24T11:59:55;5.43;;;4.93;;
52306;SDS011;38249;48.920;12.882;2022-07-24T12:02:21;5.28;;;4.88;;
52306;SDS011;38249;48.920;12.882;2022-07-24T12:04:48;4.82;;;4.53;;
52306;SDS011;38249;48.920;12.882;2022-07-24T12:07:16;4.60;;;4.30;;
52306;SDS011;38249;48.920;12.882;2022-07-24T12:09:46;5.10;;;4.60;;
52306;SDS011;38249;48.920;12.882;2022-07-24T12:12:22;4.65;;;4.25;;
52306;SDS011;38249;48.920;12.882;2022-07-24T12:14:50;4.50;;;4.20;;
52306;SDS011;38249;48.920;12.882;2022-07-24T12:17:18;5.35;;;4.95;;
52306;SDS011;38249;48.920;12.882;2022-07-24T12:19:52;5.60;;;5.03;;
52306;SDS011;38249;48.920;12.882;2022-07-24T12:22:20;6.90;;;5.00;;
52306;SDS011;38249;48.920;12.882;2022-07-24T12:24:48;5.32;;;4.82;;
52306;SDS011;38249;48.920;12.882;2022-07-24T12:27:32;7.00;;;5.38;;
52306;SDS011;38249;48.920;12.882;2022-07-24T12:30:00;5.80;;;5.25;;
52306;SDS011;38249;48.920;12.882;2022-07-24T12:32:27;5.28;;;4.80;;
52306;SDS011;38249;48.920;12.882;2022-07-24T12:34:54;5.68;;;5.15;;
52306;SDS011;38249;48.920;12.882;2022-07-24T12:37:21;5.30;;;4.90;;
52306;SDS011;38249;48.920;12.882;2022-07-24T12:39:49;5.68;;;5.07;;
52306;SDS011;38249;48.920;12.882;2022-07-24T12:42:17;4.78;;;4.38;;
52306;SDS011;38249;48.920;12.882;2022-07-24T12:44:45;4.57;;;4.18;;
52306;SDS011;38249;48.920;12.882;2022-07-24T12:47:12;4.93;;;4.53;;
52306;SDS011;38249;48.920;12.882;2022-07-24T12:49:39;3.88;;;3.58;;
52306;SDS011;38249;48.920;12.882;2022-07-24T12:52:06;4.40;;;4.00;;
52306;SDS011;38249;48.920;12.882;2022-07-24T12:54:45;4.57;;;4.18;;
52306;SDS011;38249;48.920;12.882;2022-07-24T12:57:13;4.00;;;3.60;;
52306;SDS011;38249;48.920;12.882;2022-07-24T12:59:41;4.30;;;3.88;;
52306;SDS011;38249;48.920;12.882;2022-07-24T13:02:12;4.13;;;3.83;;
52306;SDS011;38249;48.920;12.882;2022-07-24T13:07:09;3.88;;;3.58;;
52306;SDS011;38249;48.920;12.882;2022-07-24T13:09:37;4.20;;;3.70;;
52306;SDS011;38249;48.920;12.882;2022-07-24T13:12:04;3.83;;;3.53;;
52306;SDS011;38249;48.920;12.882;2022-07-24T13:14:31;4.22;;;3.92;;
52306;SDS011;38249;48.920;12.882;2022-07-24T13:17:01;4.63;;;4.22;;
52306;SDS011;38249;48.920;12.882;2022-07-24T13:19:30;4.70;;;4.30;;
52306;SDS011;38249;48.920;12.882;2022-07-24T13:21:57;5.65;;;5.15;;
52306;SDS011;38249;48.920;12.882;2022-07-24T13:24:23;4.85;;;4.45;;
52306;SDS011;38249;48.920;12.882;2022-07-24T13:26:50;5.43;;;5.03;;
52306;SDS011;38249;48.920;12.882;2022-07-24T13:29:17;5.72;;;5.10;;
52306;SDS011;38249;48.920;12.882;2022-07-24T13:31:43;5.22;;;4.75;;
52306;SDS011;38249;48.920;12.882;2022-07-24T13:34:10;5.75;;;5.25;;
52306;SDS011;38249;48.920;12.882;2022-07-24T13:36:38;7.47;;;5.55;;
52306;SDS011;38249;48.920;12.882;2022-07-24T13:39:05;6.25;;;5.47;;
52306;SDS011;38249;48.920;12.882;2022-07-24T13:41:32;6.28;;;5.78;;
52306;SDS011;38249;48.920;12.882;2022-07-24T13:43:58;6.60;;;5.35;;
52306;SDS011;38249;48.920;12.882;2022-07-24T13:46:25;5.65;;;5.15;;
52306;SDS011;38249;48.920;12.882;2022-07-24T13:48:52;6.53;;;6.03;;
52306;SDS011;38249;48.920;12.882;2022-07-24T13:51:19;7.90;;;6.15;;
52306;SDS011;38249;48.920;12.882;2022-07-24T13:53:47;5.68;;;5.28;;
52306;SDS011;38249;48.920;12.882;2022-07-24T13:56:13;5.97;;;5.38;;
52306;SDS011;38249;48.920;12.882;2022-07-24T13:58:40;5.72;;;5.20;;
52306;SDS011;38249;48.920;12.882;2022-07-24T14:01:07;5.93;;;5.43;;
52306;SDS011;38249;48.920;12.882;2022-07-24T14:03:35;5.82;;;5.38;;
52306;SDS011;38249;48.920;12.882;2022-07-24T14:06:04;5.75;;;5.15;;
52306;SDS011;38249;48.920;12.882;2022-07-24T14:08:31;5.93;;;5.18;;
52306;SDS011;38249;48.920;12.882;2022-07-24T14:10:59;8.32;;;7.53;;
52306;SDS011;38249;48.920;12.882;2022-07-24T14:13:26;6.10;;;5.32;;
52306;SDS011;38249;48.920;12.882;2022-07-24T14:15:52;6.03;;;5.38;;
52306;SDS011;38249;48.920;12.882;2022-07-24T14:18:19;6.07;;;5.57;;
52306;SDS011;38249;48.920;12.882;2022-07-24T14:20:46;6.22;;;5.70;;
52306;SDS011;38249;48.920;12.882;2022-07-24T14:23:13;5.90;;;5.40;;
52306;SDS011;38249;48.920;12.882;2022-07-24T14:25:39;5.97;;;5.38;;
52306;SDS011;38249;48.920;12.882;2022-07-24T14:28:07;7.60;;;5.38;;
52306;SDS011;38249;48.920;12.882;2022-07-24T14:30:34;5.70;;;4.97;;
52306;SDS011;38249;48.920;12.882;2022-07-24T14:33:00;6.03;;;5.53;;
52306;SDS011;38249;48.920;12.882;2022-07-24T14:35:27;7.57;;;5.82;;
52306;SDS011;38249;48.920;12.882;2022-07-24T14:37:55;5.82;;;5.30;;
52306;SDS011;38249;48.920;12.882;2022-07-24T14:40:22;6.20;;;5.60;;